createdAt,value
2022-12-19T00:02:48.216Z,16.57
2022-12-19T00:05:52.024Z,15.43
2022-12-19T00:08:55.662Z,14.57
2022-12-19T00:11:57.787Z,15.83
2022-12-19T00:14:59.869Z,14.93
2022-12-19T00:18:04.162Z,14.77
2022-12-19T00:21:07.207Z,15.00
2022-12-19T00:24:20.433Z,14.07
2022-12-19T00:27:23.122Z,15.00
2022-12-19T00:30:25.368Z,15.17
2022-12-19T00:33:28.396Z,14.13
2022-12-19T00:36:33.807Z,15.70
2022-12-19T00:39:35.920Z,14.90
2022-12-19T00:42:37.949Z,14.07
2022-12-19T00:45:40.056Z,14.67
2022-12-19T00:48:42.891Z,14.43
2022-12-19T00:51:44.989Z,14.17
2022-12-19T00:54:47.811Z,14.40
2022-12-19T00:57:50.300Z,14.13
2022-12-19T01:00:54.688Z,13.80
2022-12-19T01:04:27.127Z,13.97
2022-12-19T01:07:21.076Z,13.40
2022-12-19T01:10:23.119Z,14.37
2022-12-19T01:13:27.372Z,13.33
2022-12-19T01:16:29.558Z,14.13
2022-12-19T01:19:31.619Z,13.97
2022-12-19T01:22:33.732Z,12.60
2022-12-19T01:25:37.071Z,13.50
2022-12-19T01:28:42.134Z,13.10
2022-12-19T01:31:44.250Z,13.80
2022-12-19T01:34:46.443Z,12.73
2022-12-19T01:37:48.483Z,12.47
2022-12-19T01:40:53.953Z,13.03
2022-12-19T01:44:03.966Z,12.83
2022-12-19T01:47:13.691Z,12.67
2022-12-19T01:50:32.812Z,12.80
2022-12-19T01:54:03.117Z,12.87
2022-12-19T01:57:11.458Z,11.53
2022-12-19T02:00:14.150Z,12.67
2022-12-19T02:03:23.009Z,12.70
2022-12-19T02:06:27.385Z,13.03
2022-12-19T02:09:29.581Z,11.83
2022-12-19T02:12:36.971Z,12.37
2022-12-19T02:15:52.418Z,11.17
2022-12-19T02:19:03.235Z,11.50
2022-12-19T02:22:23.542Z,12.43
2022-12-19T02:25:44.498Z,12.10
2022-12-19T02:29:15.774Z,11.63
2022-12-19T02:32:32.856Z,10.83
2022-12-19T02:36:03.360Z,10.33
2022-12-19T02:39:18.181Z,11.13
2022-12-19T02:42:30.614Z,11.80
2022-12-19T02:45:40.042Z,11.10
2022-12-19T02:48:43.046Z,10.33
2022-12-19T02:51:45.208Z,11.40
2022-12-19T02:54:50.775Z,11.40
2022-12-19T02:58:03.244Z,12.30
2022-12-19T03:01:19.537Z,11.40
2022-12-19T03:04:44.969Z,11.50
2022-12-19T03:08:19.388Z,10.60
2022-12-19T03:11:23.921Z,11.70
2022-12-19T03:14:27.281Z,10.63
2022-12-19T03:17:36.878Z,11.10
2022-12-19T03:21:06.733Z,11.50
2022-12-19T03:24:11.209Z,10.83
2022-12-19T03:27:20.847Z,9.43
2022-12-19T03:30:23.320Z,10.00
2022-12-19T03:33:29.822Z,10.03
2022-12-19T03:36:37.587Z,10.27
2022-12-19T03:39:42.188Z,10.43
2022-12-19T03:43:05.318Z,9.40
2022-12-19T03:46:23.558Z,9.87
2022-12-19T03:49:25.653Z,9.37
2022-12-19T03:52:59.358Z,8.90
2022-12-19T03:56:32.379Z,9.60
2022-12-19T04:00:02.214Z,9.33
2022-12-19T04:03:17.748Z,8.70
2022-12-19T04:06:20.402Z,9.07
2022-12-19T04:09:24.288Z,9.63
2022-12-19T04:12:32.131Z,9.27
2022-12-19T04:16:14.926Z,9.03
2022-12-19T04:19:23.291Z,8.80
2022-12-19T04:22:54.633Z,8.60
2022-12-19T04:26:02.240Z,9.27
2022-12-19T04:29:06.702Z,9.90
2022-12-19T04:32:09.905Z,8.97
2022-12-19T04:35:12.860Z,8.63
2022-12-19T04:38:15.164Z,8.37
2022-12-19T04:41:17.191Z,9.77
2022-12-19T04:44:19.296Z,8.93
2022-12-19T04:47:21.695Z,8.03
2022-12-19T04:50:23.762Z,8.70
2022-12-19T04:53:25.812Z,8.77
2022-12-19T04:56:27.921Z,8.67
2022-12-19T04:59:30.007Z,9.20
2022-12-19T05:02:32.534Z,8.87
2022-12-19T05:05:34.944Z,10.30
2022-12-19T05:08:38.546Z,9.57
2022-12-19T05:11:40.705Z,9.67
2022-12-19T05:14:43.222Z,9.47
2022-12-19T05:17:45.294Z,10.13
2022-12-19T05:20:49.266Z,9.97
2022-12-19T05:23:51.592Z,10.40
2022-12-19T05:26:53.696Z,10.70
2022-12-19T05:29:55.905Z,10.33
2022-12-19T05:32:57.989Z,10.33
2022-12-19T05:36:01.425Z,11.13
2022-12-19T05:39:03.747Z,10.93
2022-12-19T05:42:09.664Z,12.07
2022-12-19T05:45:14.330Z,11.33
2022-12-19T05:48:16.342Z,11.77
2022-12-19T05:51:18.569Z,11.83
2022-12-19T05:54:20.735Z,12.00
2022-12-19T05:57:22.793Z,12.17
2022-12-19T06:00:25.892Z,12.57
2022-12-19T06:03:28.046Z,12.40
2022-12-19T06:06:30.250Z,11.93
2022-12-19T06:09:32.345Z,13.77
2022-12-19T06:12:34.439Z,15.30
2022-12-19T06:15:36.544Z,15.63
2022-12-19T06:18:44.138Z,15.33
2022-12-19T06:21:48.439Z,17.13
2022-12-19T06:24:50.995Z,15.63
2022-12-19T06:27:53.040Z,16.03
2022-12-19T06:30:59.795Z,17.97
2022-12-19T06:34:02.676Z,17.40
2022-12-19T06:37:08.137Z,15.53
2022-12-19T06:40:30.915Z,15.67
2022-12-19T06:43:33.027Z,14.77
2022-12-19T06:46:35.060Z,15.27
2022-12-19T06:49:37.167Z,16.53
2022-12-19T06:52:39.194Z,15.33
2022-12-19T06:55:41.483Z,14.80
2022-12-19T06:58:43.621Z,15.37
2022-12-19T07:02:00.895Z,16.30
2022-12-19T07:05:07.020Z,15.60
2022-12-19T07:08:09.860Z,18.00
2022-12-19T07:11:11.981Z,19.17
2022-12-19T07:14:14.018Z,16.30
2022-12-19T07:17:16.524Z,18.17
2022-12-19T07:20:19.649Z,19.70
2022-12-19T07:23:22.969Z,18.53
2022-12-19T07:26:25.177Z,18.50
2022-12-19T07:29:27.292Z,18.87
2022-12-19T07:32:29.464Z,18.90
2022-12-19T07:35:31.531Z,19.53
2022-12-19T07:38:33.523Z,18.60
2022-12-19T07:41:39.272Z,18.83
2022-12-19T07:44:41.371Z,18.90
2022-12-19T07:47:43.406Z,19.43
2022-12-19T07:50:47.329Z,19.50
2022-12-19T07:53:49.439Z,17.27
2022-12-19T07:56:52.557Z,18.53
2022-12-19T07:59:54.791Z,19.10
2022-12-19T08:02:59.231Z,18.37
2022-12-19T08:06:03.439Z,17.17
2022-12-19T08:09:05.866Z,16.97
2022-12-19T08:12:08.102Z,17.10
2022-12-19T08:15:11.269Z,16.67
2022-12-19T08:18:13.570Z,16.27
2022-12-19T08:21:15.610Z,16.73
2022-12-19T08:24:17.662Z,16.63
2022-12-19T08:27:19.798Z,16.57
2022-12-19T08:30:22.609Z,16.50
2022-12-19T08:33:24.676Z,16.03
2022-12-19T08:36:26.681Z,17.00
2022-12-19T08:39:29.077Z,15.63
2022-12-19T08:42:31.076Z,16.03
2022-12-19T08:45:33.144Z,14.23
2022-12-19T08:48:36.909Z,14.87
2022-12-19T08:51:38.993Z,15.50
2022-12-19T08:54:41.052Z,15.00
2022-12-19T08:57:43.136Z,15.63
2022-12-19T09:00:52.118Z,15.13
2022-12-19T09:04:24.761Z,14.97
2022-12-19T09:07:22.117Z,15.03
2022-12-19T09:10:24.272Z,15.40
2022-12-19T09:13:28.452Z,14.30
2022-12-19T09:16:30.810Z,15.13
2022-12-19T09:19:33.170Z,15.73
2022-12-19T09:22:35.257Z,14.47
2022-12-19T09:25:37.362Z,15.20
2022-12-19T09:28:41.019Z,14.73
2022-12-19T09:31:43.102Z,14.73
2022-12-19T09:34:45.199Z,14.73
2022-12-19T09:37:47.178Z,14.57
2022-12-19T09:41:01.231Z,15.37
2022-12-19T09:44:29.964Z,14.57
2022-12-19T09:47:33.182Z,15.67
2022-12-19T09:51:23.149Z,15.43
2022-12-19T09:54:33.232Z,14.93
2022-12-19T09:57:50.866Z,15.57
2022-12-19T10:01:00.650Z,15.07
2022-12-19T10:04:07.357Z,15.43
2022-12-19T10:07:31.477Z,14.67
2022-12-19T10:12:38.266Z,15.20
2022-12-19T10:14:30.555Z,15.50
2022-12-19T10:17:57.447Z,16.73
2022-12-19T10:22:15.766Z,16.43
2022-12-19T10:25:21.577Z,15.57
2022-12-19T10:28:48.554Z,15.70
2022-12-19T10:32:04.578Z,15.33
2022-12-19T10:35:34.105Z,16.23
2022-12-19T10:39:00.418Z,15.97
2022-12-19T10:42:19.362Z,13.73
2022-12-19T10:45:23.454Z,15.93
2022-12-19T10:48:31.280Z,15.33
2022-12-19T10:51:33.656Z,16.13
2022-12-19T10:54:40.300Z,16.00
2022-12-19T10:57:42.378Z,15.40
2022-12-19T11:01:07.099Z,16.50
2022-12-19T11:04:28.401Z,16.47
2022-12-19T11:07:31.822Z,16.27
2022-12-19T11:12:08.001Z,16.60
2022-12-19T11:20:26.306Z,15.50
2022-12-19T11:29:15.256Z,16.40
2022-12-19T11:29:33.381Z,15.77
2022-12-19T11:30:06.585Z,16.20
2022-12-19T11:30:34.379Z,16.40
2022-12-19T11:32:32.070Z,16.27
2022-12-19T11:35:19.387Z,16.20
2022-12-19T11:38:48.837Z,16.77
2022-12-19T11:42:10.458Z,15.63
2022-12-19T11:45:35.237Z,16.23
2022-12-19T11:49:04.820Z,16.83
2022-12-19T11:53:02.071Z,16.00
2022-12-19T11:56:01.301Z,16.10
2022-12-19T11:59:18.838Z,17.47
2022-12-19T12:02:20.861Z,17.33
2022-12-19T12:05:30.119Z,16.07
2022-12-19T12:09:53.741Z,15.73
2022-12-19T12:21:02.799Z,15.90
2022-12-19T12:27:22.484Z,15.67
2022-12-19T12:31:07.147Z,17.03
2022-12-19T12:31:28.798Z,16.63
2022-12-19T12:31:52.359Z,17.77
2022-12-19T12:32:03.520Z,17.23
2022-12-19T12:35:56.637Z,15.80
2022-12-19T12:41:59.985Z,16.43
2022-12-19T12:45:09.578Z,16.90
2022-12-19T12:48:22.633Z,15.40
2022-12-19T12:51:26.950Z,15.37
2022-12-19T12:54:39.547Z,16.53
2022-12-19T12:57:41.827Z,16.30
2022-12-19T13:01:12.155Z,15.93
2022-12-19T13:04:14.243Z,16.00
2022-12-19T13:07:22.891Z,17.50
2022-12-19T13:10:29.054Z,15.90
2022-12-19T13:13:54.454Z,16.73
2022-12-19T13:16:57.087Z,17.87
2022-12-19T13:20:27.750Z,15.73
2022-12-19T13:23:29.985Z,14.87
2022-12-19T13:26:50.175Z,16.33
2022-12-19T13:30:03.842Z,16.57
2022-12-19T13:33:08.365Z,16.27
2022-12-19T13:39:59.188Z,16.13
2022-12-19T13:40:32.789Z,16.57
2022-12-19T13:43:48.359Z,16.57
2022-12-19T13:46:50.802Z,17.23
2022-12-19T13:49:53.111Z,16.07
2022-12-19T13:52:55.418Z,17.77
2022-12-19T13:56:03.839Z,16.80
2022-12-19T13:59:06.168Z,16.40
2022-12-19T14:02:18.393Z,16.43
2022-12-19T14:06:14.678Z,17.23
2022-12-19T14:11:25.277Z,17.27
2022-12-19T14:13:40.713Z,17.03
2022-12-19T14:16:17.455Z,18.20
2022-12-19T14:19:22.855Z,17.10
2022-12-19T14:22:27.816Z,16.57
2022-12-19T14:28:27.103Z,19.40
2022-12-19T14:30:19.395Z,17.80
2022-12-19T14:33:44.992Z,17.83
2022-12-19T14:36:26.239Z,17.93
2022-12-19T14:39:33.839Z,18.47
2022-12-19T14:43:58.888Z,17.70
2022-12-19T14:52:25.849Z,19.10
2022-12-19T14:54:15.012Z,19.77
2022-12-19T14:54:37.067Z,18.37
2022-12-19T14:57:05.624Z,18.53
2022-12-19T15:01:07.490Z,19.37
2022-12-19T15:04:53.434Z,18.37
2022-12-19T15:07:44.689Z,17.93
2022-12-19T15:11:06.267Z,18.40
2022-12-19T15:14:54.726Z,19.13
2022-12-19T15:17:31.851Z,19.10
2022-12-19T15:20:33.926Z,19.23
2022-12-19T15:23:36.208Z,19.83
2022-12-19T15:26:48.400Z,20.20
2022-12-19T15:29:50.501Z,22.13
2022-12-19T15:32:52.527Z,20.77
2022-12-19T15:35:55.999Z,19.30
2022-12-19T15:38:58.086Z,19.83
2022-12-19T15:42:01.696Z,20.80
2022-12-19T15:45:04.873Z,21.77
2022-12-19T15:48:08.591Z,19.73
2022-12-19T15:51:14.515Z,19.47
2022-12-19T15:57:43.130Z,21.20
2022-12-19T16:00:54.800Z,21.47
2022-12-19T16:04:00.740Z,20.73
2022-12-19T16:07:02.981Z,19.27
2022-12-19T16:10:05.744Z,19.00
2022-12-19T16:13:32.312Z,20.93
2022-12-19T16:16:34.785Z,20.10
2022-12-19T16:19:36.819Z,20.83
2022-12-19T16:22:39.105Z,19.87
2022-12-19T16:25:44.530Z,18.60
2022-12-19T16:28:46.637Z,20.27
2022-12-19T16:31:48.903Z,19.27
2022-12-19T16:34:52.794Z,20.67
2022-12-19T16:37:55.053Z,21.13
2022-12-19T16:40:58.049Z,19.23
2022-12-19T16:44:00.869Z,20.60
2022-12-19T16:47:03.008Z,22.30
2022-12-19T16:50:17.852Z,21.07
2022-12-19T16:53:20.038Z,20.97
2022-12-19T16:56:30.347Z,21.07
2022-12-19T16:59:40.508Z,20.73
2022-12-19T17:02:47.449Z,22.33
2022-12-19T17:05:49.737Z,20.67
2022-12-19T17:08:51.970Z,20.57
2022-12-19T17:12:00.383Z,20.50
2022-12-19T17:15:07.977Z,21.77
2022-12-19T17:18:17.745Z,20.67
2022-12-19T17:21:21.857Z,20.57
2022-12-19T17:24:23.875Z,19.90
2022-12-19T17:27:26.404Z,19.83
2022-12-19T17:30:28.456Z,19.63
2022-12-19T17:33:39.883Z,21.63
2022-12-19T17:36:42.119Z,20.80
2022-12-19T17:39:45.487Z,21.17
2022-12-19T17:42:48.181Z,19.93
2022-12-19T17:45:51.333Z,20.10
2022-12-19T17:48:54.327Z,19.97
2022-12-19T17:51:57.310Z,18.67
2022-12-19T17:54:59.474Z,19.70
2022-12-19T17:58:01.528Z,20.20
2022-12-19T18:01:03.997Z,20.87
2022-12-19T18:04:06.119Z,19.73
2022-12-19T18:07:15.909Z,20.50
2022-12-19T18:10:20.648Z,18.70
2022-12-19T18:13:23.947Z,18.63
2022-12-19T18:16:31.137Z,20.10
2022-12-19T18:19:34.912Z,21.17
2022-12-19T18:22:37.188Z,20.83
2022-12-19T18:25:40.413Z,20.27
2022-12-19T18:28:43.151Z,18.83
2022-12-19T18:31:50.767Z,19.60
2022-12-19T18:34:53.812Z,19.23
2022-12-19T18:37:59.161Z,19.60
2022-12-19T18:41:01.583Z,21.10
2022-12-19T18:44:04.177Z,18.87
2022-12-19T18:47:17.511Z,20.07
2022-12-19T18:50:23.225Z,19.83
2022-12-19T18:53:35.232Z,20.67
2022-12-19T18:56:37.991Z,19.23
2022-12-19T18:59:40.134Z,19.70
2022-12-19T19:02:48.463Z,19.50
2022-12-19T19:05:51.232Z,19.80
2022-12-19T19:08:54.250Z,19.43
2022-12-19T19:12:14.860Z,20.73
2022-12-19T19:15:21.951Z,20.03
2022-12-19T19:18:32.093Z,19.17
2022-12-19T19:21:36.063Z,19.63
2022-12-19T19:24:38.616Z,19.27
2022-12-19T19:27:41.390Z,19.47
2022-12-19T19:30:44.364Z,20.70
2022-12-19T19:33:54.146Z,20.90
2022-12-19T19:36:59.747Z,19.13
2022-12-19T19:40:02.138Z,18.37
2022-12-19T19:43:05.627Z,19.00
2022-12-19T19:46:07.820Z,19.07
2022-12-19T19:49:12.825Z,19.37
2022-12-19T19:52:15.675Z,20.00
2022-12-19T19:55:17.801Z,20.90
2022-12-19T19:58:20.445Z,18.80
2022-12-19T20:01:22.982Z,20.03
2022-12-19T20:04:25.427Z,18.90
2022-12-19T20:07:27.961Z,19.63
2022-12-19T20:10:30.093Z,21.17
2022-12-19T20:13:33.211Z,21.23
2022-12-19T20:16:35.697Z,20.37
2022-12-19T20:19:39.261Z,20.73
2022-12-19T20:22:42.838Z,19.70
2022-12-19T20:25:45.561Z,20.30
2022-12-19T20:28:50.292Z,19.83
2022-12-19T20:31:52.632Z,20.80
2022-12-19T20:34:55.185Z,20.80
2022-12-19T20:37:57.713Z,21.70
2022-12-19T20:41:00.406Z,20.63
2022-12-19T20:44:02.846Z,20.10
2022-12-19T20:47:05.421Z,21.33
2022-12-19T20:50:08.446Z,21.17
2022-12-19T20:53:10.704Z,21.27
2022-12-19T20:56:16.204Z,24.20
2022-12-19T20:59:18.302Z,21.70
2022-12-19T21:02:20.588Z,20.93
2022-12-19T21:05:22.783Z,21.67
2022-12-19T21:08:26.296Z,22.17
2022-12-19T21:11:28.405Z,21.43
2022-12-19T21:14:30.556Z,21.57
2022-12-19T21:17:32.705Z,21.97
2022-12-19T21:20:36.345Z,22.40
2022-12-19T21:23:38.470Z,22.67
2022-12-19T21:26:40.619Z,22.10
2022-12-19T21:29:42.715Z,21.33
2022-12-19T21:32:45.525Z,20.73
2022-12-19T21:35:47.584Z,21.03
2022-12-19T21:38:52.477Z,20.60
2022-12-19T21:41:54.822Z,21.03
2022-12-19T21:44:56.889Z,22.27
2022-12-19T21:47:58.935Z,21.33
2022-12-19T21:51:00.967Z,20.50
2022-12-19T21:54:05.158Z,20.40
2022-12-19T21:57:07.193Z,22.23
2022-12-19T22:00:11.811Z,20.27
2022-12-19T22:03:15.160Z,21.07
2022-12-19T22:06:27.945Z,20.57
2022-12-19T22:09:30.841Z,20.57
2022-12-19T22:12:32.884Z,21.03
2022-12-19T22:15:36.721Z,21.90
2022-12-19T22:18:39.903Z,22.00
2022-12-19T22:21:42.186Z,21.23
2022-12-19T22:24:44.234Z,22.67
2022-12-19T22:27:46.240Z,22.40
2022-12-19T22:30:48.538Z,23.33
2022-12-19T22:33:53.373Z,20.97
2022-12-19T22:36:55.454Z,22.73
2022-12-19T22:40:00.532Z,21.67
2022-12-19T22:43:02.673Z,21.90
2022-12-19T22:46:12.320Z,22.00
2022-12-19T22:49:15.041Z,22.03
2022-12-19T22:52:17.094Z,23.17
2022-12-19T22:55:19.255Z,21.67
2022-12-19T22:58:21.342Z,23.37
2022-12-19T23:01:29.805Z,22.30
2022-12-19T23:04:31.904Z,21.27
2022-12-19T23:07:35.104Z,22.60
2022-12-19T23:10:37.179Z,20.60
2022-12-19T23:13:39.988Z,20.33
2022-12-19T23:16:43.231Z,21.40
2022-12-19T23:19:45.440Z,22.33
2022-12-19T23:22:47.622Z,21.97
2022-12-19T23:25:50.029Z,21.27
2022-12-19T23:28:55.132Z,19.90
2022-12-19T23:31:57.232Z,20.87
2022-12-19T23:34:59.303Z,20.67
2022-12-19T23:38:01.376Z,21.87
2022-12-19T23:41:08.534Z,21.90
2022-12-19T23:44:11.347Z,20.20
2022-12-19T23:47:13.394Z,20.53
2022-12-19T23:50:15.592Z,19.67
2022-12-19T23:53:17.654Z,19.10
2022-12-19T23:56:22.279Z,20.53
2022-12-19T23:59:24.434Z,20.07
